Time;durP1;ratioP1;P1;durP2;ratioP2;P2;SDS_P1;SDS_P2;PMS_P1;PMS_P2;Temp;Humidity;BMP_temperature;BMP_pressure;BME280_temperature;BME280_humidity;BME280_pressure;Samples;Min_cycle;Max_cycle;Signal;HPM_P1;HPM_P2
2022/07/25 00:02:16;;;;;;;7.88;5.70;;;;;;;22.86;58.81;100962.38;5026160;28;20404;-86
2022/07/25 00:04:41;;;;;;;9.68;5.50;;;;;;;22.83;58.95;100957.19;5038709;28;20029;-87
2022/07/25 00:07:07;;;;;;;9.05;5.70;;;;;;;22.73;60.03;100948.88;5020435;28;20061;-86
2022/07/25 00:09:33;;;;;;;11.68;5.90;;;;;;;22.78;58.50;100953.97;5060372;28;20098;-86
2022/07/25 00:11:59;;;;;;;8.35;5.22;;;;;;;22.71;59.58;100944.56;5032221;28;20483;-86
2022/07/25 00:14:24;;;;;;;8.60;5.88;;;;;;;22.70;59.83;100942.81;5020827;28;20135;-86
2022/07/25 00:16:50;;;;;;;8.30;5.75;;;;;;;22.66;60.33;100942.19;5034406;28;20099;-86
2022/07/25 00:19:16;;;;;;;8.18;5.43;;;;;;;22.61;59.91;100932.72;5048622;28;20556;-86
2022/07/25 00:21:41;;;;;;;9.02;6.03;;;;;;;22.59;60.09;100932.81;5002030;28;20056;-86
2022/07/25 00:24:07;;;;;;;6.40;5.28;;;;;;;22.57;59.05;100937.44;5052616;28;20476;-86
2022/07/25 00:26:32;;;;;;;8.50;5.68;;;;;;;22.51;59.91;100932.50;5058873;28;20116;-86
2022/07/25 00:28:58;;;;;;;8.82;5.80;;;;;;;22.49;59.75;100934.44;5028137;28;20549;-86
2022/07/25 00:31:23;;;;;;;10.75;5.90;;;;;;;22.42;60.30;100920.50;5054550;28;20446;-86
2022/07/25 00:33:49;;;;;;;11.00;5.72;;;;;;;22.42;60.79;100931.28;5054457;28;20048;-86
2022/07/25 00:36:14;;;;;;;7.18;5.57;;;;;;;22.33;61.45;100923.88;5018880;28;20124;-86
2022/07/25 00:38:40;;;;;;;9.23;5.60;;;;;;;22.29;60.24;100915.09;5034637;28;20032;-86
2022/07/25 00:41:05;;;;;;;8.73;6.10;;;;;;;22.22;60.77;100913.81;5033030;28;20108;-87
2022/07/25 00:43:31;;;;;;;8.30;5.78;;;;;;;22.18;61.61;100911.38;5047290;28;20044;-86
2022/07/25 00:45:57;;;;;;;8.73;6.10;;;;;;;22.17;60.62;100904.28;5065611;28;20467;-86
2022/07/25 00:48:23;;;;;;;10.55;6.22;;;;;;;22.10;61.91;100901.13;5035369;28;20040;-86
2022/07/25 00:50:49;;;;;;;8.77;6.10;;;;;;;22.01;62.05;100889.16;5026000;28;20064;-86
2022/07/25 00:53:15;;;;;;;9.18;6.60;;;;;;;22.04;62.03;100896.19;5021286;28;20113;-86
2022/07/25 00:55:40;;;;;;;7.63;6.13;;;;;;;22.03;62.49;100895.31;5037919;28;20410;-86
2022/07/25 00:58:06;;;;;;;7.80;6.28;;;;;;;21.97;62.50;100886.78;5037828;28;20123;-87
2022/07/25 01:00:32;;;;;;;7.85;5.93;;;;;;;21.95;62.42;100883.31;5071003;28;20177;-86
2022/07/25 01:02:57;;;;;;;13.38;6.53;;;;;;;21.97;61.62;100886.78;5027968;28;20058;-86
2022/07/25 01:05:23;;;;;;;8.38;6.45;;;;;;;21.92;63.04;100889.78;5066180;28;20380;-87
2022/07/25 01:07:50;;;;;;;8.45;6.82;;;;;;;21.92;61.92;100880.84;5037630;28;20521;-86
2022/07/25 01:10:16;;;;;;;13.82;6.50;;;;;;;21.86;62.01;100871.34;5054143;28;20033;-86
2022/07/25 01:12:51;;;;;;;8.43;6.35;;;;;;;21.85;61.63;100880.41;5054117;28;20062;-86
2022/07/25 01:15:18;;;;;;;8.98;6.43;;;;;;;21.81;61.67;100862.69;5046418;28;20036;-86
2022/07/25 01:17:45;;;;;;;12.60;6.60;;;;;;;21.82;62.59;100876.06;5066560;28;20037;-86
2022/07/25 01:20:18;;;;;;;10.13;6.80;;;;;;;21.78;62.56;100876.38;5062016;28;20424;-86
2022/07/25 01:22:44;;;;;;;9.48;7.18;;;;;;;21.75;61.96;100864.00;5057082;28;20499;-86
2022/07/25 01:25:11;;;;;;;15.35;7.63;;;;;;;21.75;62.96;100865.81;5047745;28;20426;-86
2022/07/25 01:27:37;;;;;;;8.45;7.18;;;;;;;21.71;61.73;100867.88;5050517;28;20495;-86
2022/07/25 01:30:05;;;;;;;10.35;7.10;;;;;;;21.72;61.98;100864.19;5036606;28;20029;-86
2022/07/25 01:32:30;;;;;;;14.30;7.60;;;;;;;21.63;62.59;100844.13;5027676;28;20064;-86
2022/07/25 01:34:56;;;;;;;9.00;7.55;;;;;;;21.69;62.33;100862.59;5058366;28;20456;-86
2022/07/25 01:37:21;;;;;;;10.27;7.50;;;;;;;21.68;62.01;100858.13;5022096;28;20037;-86
2022/07/25 01:39:47;;;;;;;10.27;7.32;;;;;;;21.66;62.15;100854.72;5056879;28;20382;-86
2022/07/25 01:42:12;;;;;;;10.30;7.03;;;;;;;21.63;62.13;100846.81;5049039;28;20172;-86
2022/07/25 01:44:38;;;;;;;12.98;7.60;;;;;;;21.61;62.05;100842.50;5028725;28;20068;-86
2022/07/25 01:47:03;;;;;;;13.93;7.60;;;;;;;21.63;62.15;100840.56;5068292;28;20430;-86
2022/07/25 01:49:29;;;;;;;9.07;7.35;;;;;;;21.63;60.89;100838.72;5027357;28;20025;-86
2022/07/25 01:51:55;;;;;;;13.40;7.47;;;;;;;21.61;62.56;100838.00;5058113;28;20040;-86
2022/07/25 01:54:20;;;;;;;8.65;7.45;;;;;;;21.58;62.60;100829.25;5058393;28;20075;-85
2022/07/25 01:56:45;;;;;;;13.93;7.90;;;;;;;21.59;62.79;100834.53;5042597;28;20063;-86
2022/07/25 01:59:11;;;;;;;13.45;7.43;;;;;;;21.56;62.39;100829.38;5043648;28;20020;-86
2022/07/25 02:01:36;;;;;;;13.30;7.80;;;;;;;21.51;62.91;100818.00;5042294;28;20041;-86
2022/07/25 02:04:02;;;;;;;8.77;7.20;;;;;;;21.48;63.24;100819.06;5042566;28;20036;-86
2022/07/25 02:06:28;;;;;;;9.07;6.90;;;;;;;21.50;62.76;100819.00;5041188;28;20471;-86
2022/07/25 02:08:53;;;;;;;13.13;7.22;;;;;;;21.47;62.88;100819.19;5039688;28;20048;-86
2022/07/25 02:11:19;;;;;;;11.40;7.20;;;;;;;21.48;62.64;100802.91;5052950;28;20035;-86
2022/07/25 02:13:44;;;;;;;11.15;7.22;;;;;;;21.45;62.90;100813.06;5057367;28;20036;-86
2022/07/25 02:16:10;;;;;;;16.23;7.32;;;;;;;21.43;62.58;100807.75;5023433;28;20477;-86
2022/07/25 02:18:36;;;;;;;11.55;6.75;;;;;;;21.38;63.20;100803.63;5013066;28;20037;-86
2022/07/25 02:21:01;;;;;;;12.35;7.60;;;;;;;21.44;62.97;100814.03;5034946;28;20547;-86
2022/07/25 02:23:27;;;;;;;10.57;7.53;;;;;;;21.39;63.33;100800.88;5031106;28;20048;-86
2022/07/25 02:25:52;;;;;;;13.02;7.45;;;;;;;21.37;63.09;100801.91;5027378;28;20043;-86
2022/07/25 02:28:18;;;;;;;10.00;7.45;;;;;;;21.38;62.77;100811.69;5009058;28;20052;-87
2022/07/25 02:30:43;;;;;;;14.63;7.68;;;;;;;21.37;63.03;100802.75;5037126;28;20026;-86
2022/07/25 02:33:09;;;;;;;10.55;7.05;;;;;;;21.34;62.86;100802.09;5020610;28;20037;-86
2022/07/25 02:35:34;;;;;;;10.80;7.38;;;;;;;21.32;62.77;100794.13;5020605;28;20045;-86
2022/07/25 02:38:01;;;;;;;11.80;7.82;;;;;;;21.27;62.90;100796.28;5020279;28;20473;-87
2022/07/25 02:40:26;;;;;;;8.90;6.95;;;;;;;21.24;63.02;100783.00;5030305;28;20032;-86
2022/07/25 02:42:52;;;;;;;10.73;7.10;;;;;;;21.19;62.68;100782.44;5056930;28;20559;-86
2022/07/25 02:45:18;;;;;;;9.68;7.28;;;;;;;21.17;63.45;100782.56;5056981;28;20090;-87
2022/07/25 02:47:43;;;;;;;13.65;7.65;;;;;;;21.19;63.20;100777.94;5034275;28;20050;-86
2022/07/25 02:50:09;;;;;;;8.70;7.05;;;;;;;21.17;62.92;100779.03;5049753;28;20049;-86
2022/07/25 02:52:34;;;;;;;10.68;6.82;;;;;;;21.09;63.00;100768.72;5042114;28;20498;-86
2022/07/25 02:55:00;;;;;;;12.18;6.97;;;;;;;21.10;63.60;100770.47;5043136;28;20075;-86
2022/07/25 02:57:25;;;;;;;13.23;6.63;;;;;;;21.11;63.13;100782.97;5044196;28;20037;-86
2022/07/25 02:59:51;;;;;;;8.52;6.57;;;;;;;20.99;63.48;100764.94;5056659;28;20035;-86
2022/07/25 03:02:19;;;;;;;8.80;7.25;;;;;;;21.07;63.18;100772.50;5040087;28;20082;-86
2022/07/25 03:04:47;;;;;;;10.02;6.72;;;;;;;21.01;62.89;100771.09;5075943;28;20037;-86
2022/07/25 03:07:13;;;;;;;9.50;6.00;;;;;;;20.98;62.94;100769.47;5010566;28;20043;-86
2022/07/25 03:09:39;;;;;;;12.95;6.50;;;;;;;20.97;63.08;100772.28;5051246;28;20062;-86
2022/07/25 03:12:04;;;;;;;13.02;6.45;;;;;;;20.99;62.39;100771.19;5048901;28;20025;-86
2022/07/25 03:14:30;;;;;;;10.23;6.80;;;;;;;20.97;62.73;100756.13;5039912;28;20058;-86
2022/07/25 03:16:55;;;;;;;13.70;6.97;;;;;;;20.94;62.83;100749.09;5043103;28;20045;-86
2022/07/25 03:19:24;;;;;;;11.82;6.68;;;;;;;20.96;62.68;100751.69;5046662;28;20044;-86
2022/07/25 03:21:49;;;;;;;9.55;6.78;;;;;;;20.93;62.57;100746.50;5028071;28;20372;-86
2022/07/25 03:24:17;;;;;;;9.70;6.47;;;;;;;20.98;62.49;100749.75;5023320;28;20118;-86
2022/07/25 03:26:44;;;;;;;9.82;6.22;;;;;;;20.96;61.86;100743.59;5042835;28;20040;-86
2022/07/25 03:29:10;;;;;;;9.95;6.32;;;;;;;20.92;62.53;100737.59;5063371;28;20044;-86
2022/07/25 03:31:38;;;;;;;10.07;7.07;;;;;;;20.92;62.70;100745.66;5037636;28;20029;-86
2022/07/25 03:34:03;;;;;;;8.65;7.00;;;;;;;21.00;62.15;100762.16;5027258;28;20036;-86
2022/07/25 03:36:29;;;;;;;11.13;6.15;;;;;;;20.99;61.99;100757.75;5036863;28;20037;-86
2022/07/25 03:38:55;;;;;;;7.97;6.28;;;;;;;20.99;62.90;100754.16;5010047;28;20044;-86
2022/07/25 03:41:21;;;;;;;12.88;7.00;;;;;;;20.97;62.77;100750.75;5016645;28;20133;-86
2022/07/25 03:43:46;;;;;;;10.75;6.63;;;;;;;20.95;63.28;100761.59;5055981;28;20503;-86
2022/07/25 03:46:12;;;;;;;13.48;6.97;;;;;;;20.94;62.83;100759.84;5043433;28;20024;-86
2022/07/25 03:48:43;;;;;;;12.75;6.65;;;;;;;20.92;62.75;100758.22;5054304;28;20028;-86
2022/07/25 03:51:08;;;;;;;11.10;6.38;;;;;;;20.87;62.88;100750.50;5055148;28;20075;-86
2022/07/25 03:54:00;;;;;;;10.32;6.70;;;;;;;20.82;62.53;100757.97;5038554;28;20464;-86
2022/07/25 03:56:20;;;;;;;11.65;6.57;;;;;;;20.80;64.14;100751.84;5050066;28;20047;-86
2022/07/25 03:58:45;;;;;;;8.50;6.22;;;;;;;20.77;63.49;100744.84;5024376;28;20032;-87
2022/07/25 04:01:11;;;;;;;8.35;6.28;;;;;;;20.78;63.94;100745.72;5022454;28;20059;-86
2022/07/25 04:03:36;;;;;;;14.10;6.60;;;;;;;20.76;63.75;100736.88;5049986;28;20499;-86
2022/07/25 04:06:02;;;;;;;14.85;6.55;;;;;;;20.72;64.04;100733.53;5006663;28;20115;-86
2022/07/25 04:08:27;;;;;;;8.95;6.60;;;;;;;20.65;63.53;100721.44;5048860;28;20037;-86
2022/07/25 04:10:53;;;;;;;13.05;6.57;;;;;;;20.66;63.45;100724.97;5025768;28;20039;-86
2022/07/25 04:13:18;;;;;;;12.63;6.60;;;;;;;20.72;63.96;100733.53;5029012;28;20075;-87
2022/07/25 04:15:44;;;;;;;10.57;6.60;;;;;;;20.71;63.43;100730.94;5020986;28;20488;-86
2022/07/25 04:18:09;;;;;;;8.88;6.68;;;;;;;20.76;63.60;100729.66;5047614;28;20102;-86
2022/07/25 04:20:36;;;;;;;10.57;6.28;;;;;;;20.73;63.47;100727.16;5036443;28;20036;-86
2022/07/25 04:23:02;;;;;;;8.73;6.22;;;;;;;20.76;62.96;100723.41;5036120;28;20040;-86
2022/07/25 04:25:27;;;;;;;15.68;6.38;;;;;;;20.80;63.52;100730.31;5026775;28;20029;-87
2022/07/25 04:27:53;;;;;;;10.10;6.72;;;;;;;20.75;63.00;100716.31;5003255;28;20087;-86
2022/07/25 04:30:19;;;;;;;19.67;6.68;;;;;;;20.85;62.14;100728.19;5029866;28;20028;-86
2022/07/25 04:32:44;;;;;;;10.75;6.40;;;;;;;20.81;62.33;100732.03;5058262;28;20380;-86
2022/07/25 04:35:10;;;;;;;9.90;6.03;;;;;;;20.87;62.50;100730.75;5063738;28;20116;-85
2022/07/25 04:37:36;;;;;;;9.43;6.28;;;;;;;20.96;61.69;100743.59;5033568;28;20032;-86
2022/07/25 04:40:03;;;;;;;9.00;6.00;;;;;;;20.97;62.46;100734.59;5035461;28;20137;-86
2022/07/25 04:42:29;;;;;;;8.88;6.07;;;;;;;20.99;61.26;100730.81;5044469;28;20549;-86
2022/07/25 04:44:54;;;;;;;7.20;6.03;;;;;;;20.97;62.26;100740.81;5044761;28;20036;-87
2022/07/25 04:47:20;;;;;;;13.80;6.32;;;;;;;21.04;62.08;100727.78;5093532;28;20023;-86
2022/07/25 04:49:45;;;;;;;9.10;6.05;;;;;;;21.09;61.79;100735.56;5065090;28;20037;-86
2022/07/25 04:52:11;;;;;;;7.00;5.25;;;;;;;21.09;61.25;100725.66;5033977;28;20036;-86
2022/07/25 04:54:36;;;;;;;9.60;6.38;;;;;;;21.10;61.28;100715.78;5056039;28;20033;-86
2022/07/25 04:57:03;;;;;;;11.15;6.22;;;;;;;21.13;61.30;100727.19;5015987;28;20021;-86
2022/07/25 04:59:30;;;;;;;10.50;6.05;;;;;;;21.14;61.07;100723.53;5028379;28;20033;-86
2022/07/25 05:01:56;;;;;;;14.00;5.70;;;;;;;21.19;61.01;100720.50;5038820;28;20025;-86
2022/07/25 05:04:21;;;;;;;10.23;6.00;;;;;;;21.21;60.97;100719.44;5038620;28;20033;-87
2022/07/25 05:06:47;;;;;;;11.68;5.40;;;;;;;21.23;61.63;100720.19;5038697;28;20029;-86
2022/07/25 05:09:12;;;;;;;8.32;6.10;;;;;;;21.21;61.97;100713.19;5041092;28;20045;-86
2022/07/25 05:11:38;;;;;;;17.92;6.60;;;;;;;21.24;61.56;100726.44;5018923;28;20159;-86
2022/07/25 05:14:04;;;;;;;15.05;6.80;;;;;;;21.27;61.40;100720.88;5042373;28;20033;-87
2022/07/25 05:16:29;;;;;;;10.23;6.18;;;;;;;21.27;61.75;100721.72;5038226;28;20041;-86
2022/07/25 05:18:55;;;;;;;14.90;6.80;;;;;;;21.30;61.63;100726.03;5035829;28;20045;-86
2022/07/25 05:21:20;;;;;;;14.07;6.60;;;;;;;21.30;61.27;100727.88;5066483;28;20051;-86
2022/07/25 05:23:46;;;;;;;9.85;6.25;;;;;;;21.36;61.26;100739.06;5027897;28;20047;-86
2022/07/25 05:26:11;;;;;;;11.65;6.07;;;;;;;21.38;62.01;100728.19;5050539;28;20025;-86
2022/07/25 05:28:37;;;;;;;9.77;6.05;;;;;;;21.37;61.04;100715.72;5018861;28;20037;-86
2022/07/25 05:31:02;;;;;;;18.10;6.50;;;;;;;21.41;60.84;100720.81;5034274;28;20045;-86
2022/07/25 05:33:28;;;;;;;11.13;6.35;;;;;;;21.46;60.74;100725.84;5018788;28;20128;-87
2022/07/25 05:35:53;;;;;;;7.55;5.75;;;;;;;21.51;61.50;100723.72;5018651;28;20373;-86
2022/07/25 05:38:20;;;;;;;13.38;6.30;;;;;;;21.52;60.92;100725.44;5021744;28;20135;-86
2022/07/25 05:40:45;;;;;;;9.38;5.97;;;;;;;21.55;61.24;100727.91;5051859;28;20045;-86
2022/07/25 05:43:10;;;;;;;15.88;7.00;;;;;;;21.56;61.31;100735.06;5021118;28;20037;-87
2022/07/25 05:45:36;;;;;;;17.08;6.57;;;;;;;21.55;62.11;100735.16;5061784;28;20403;-86
2022/07/25 05:48:02;;;;;;;12.18;6.90;;;;;;;21.54;61.50;100728.03;4999904;28;20052;-87
2022/07/25 05:50:27;;;;;;;10.82;6.82;;;;;;;21.56;61.91;100734.16;5021891;28;20040;-86
2022/07/25 05:52:53;;;;;;;10.82;6.75;;;;;;;21.50;61.42;100719.31;5038355;28;20040;-86
2022/07/25 05:55:18;;;;;;;10.23;6.97;;;;;;;21.59;62.22;100724.06;5055022;28;20115;-86
2022/07/25 05:57:44;;;;;;;11.95;7.35;;;;;;;21.65;61.87;100733.53;5042958;28;20079;-86
2022/07/25 06:00:10;;;;;;;12.15;7.30;;;;;;;21.61;61.72;100729.31;5053344;28;20029;-86
2022/07/25 06:02:35;;;;;;;14.25;7.38;;;;;;;21.70;61.99;100750.25;5039007;28;20037;-86
2022/07/25 06:05:01;;;;;;;11.43;7.55;;;;;;;21.59;61.98;100744.75;5024528;28;20400;-86
2022/07/25 06:07:26;;;;;;;12.93;6.57;;;;;;;21.71;61.54;100760.06;5037733;28;20037;-86
2022/07/25 06:09:52;;;;;;;16.58;7.68;;;;;;;21.69;61.96;100765.56;5041579;28;20070;-86
2022/07/25 06:12:17;;;;;;;12.80;7.75;;;;;;;;;;5038138;28;20094;-85
2022/07/25 06:14:43;;;;;;;9.45;6.97;;;;;;;21.67;62.10;100754.00;5013059;28;20550;-86
2022/07/25 06:17:08;;;;;;;10.65;7.32;;;;;;;21.73;61.90;100766.19;5021822;28;20496;-86
2022/07/25 06:19:34;;;;;;;14.73;7.60;;;;;;;21.72;61.38;100758.22;5005706;28;20064;-86
2022/07/25 06:21:59;;;;;;;12.77;7.05;;;;;;;21.69;61.89;100746.69;5025288;28;20468;-87
2022/07/25 06:24:25;;;;;;;15.25;7.00;;;;;;;21.67;61.70;100761.25;5038868;28;20116;-87
2022/07/25 06:26:50;;;;;;;13.07;6.85;;;;;;;21.61;62.13;100751.75;5028213;28;20025;-86
2022/07/25 06:29:16;;;;;;;14.48;7.00;;;;;;;21.62;61.35;100750.78;5023729;28;20388;-86
2022/07/25 06:31:41;;;;;;;14.50;7.38;;;;;;;21.67;61.45;100769.34;5057856;28;20446;-87
2022/07/25 06:34:07;;;;;;;13.77;6.55;;;;;;;21.60;61.44;100768.88;5057898;28;20044;-86
2022/07/25 06:36:33;;;;;;;13.32;7.30;;;;;;;21.64;62.44;100772.25;5045365;28;20054;-86
2022/07/25 06:38:59;;;;;;;11.63;6.88;;;;;;;21.65;62.19;100766.72;5057869;28;20036;-87
2022/07/25 06:41:24;;;;;;;18.02;7.25;;;;;;;21.67;62.88;100767.50;5051342;28;20064;-87
2022/07/25 06:43:50;;;;;;;8.45;6.28;;;;;;;21.69;62.21;100772.78;5014807;28;20036;-86
2022/07/25 06:46:15;;;;;;;10.75;6.20;;;;;;;21.80;62.62;100769.34;5008318;28;20037;-86
2022/07/25 06:48:41;;;;;;;13.73;5.72;;;;;;;21.82;62.66;100759.31;5009430;28;20758;-86
2022/07/25 06:51:06;;;;;;;11.60;6.07;;;;;;;21.85;62.33;100751.84;5018033;28;20055;-86
2022/07/25 06:53:32;;;;;;;9.43;5.75;;;;;;;21.92;61.90;100771.16;5053574;28;20094;-86
2022/07/25 06:55:58;;;;;;;8.50;5.22;;;;;;;21.92;61.67;100775.69;5065062;28;20039;-86
2022/07/25 06:58:24;;;;;;;10.35;5.10;;;;;;;21.90;61.48;100763.19;5006945;28;20499;-86
2022/07/25 07:00:49;;;;;;;8.30;5.00;;;;;;;21.89;61.85;100774.94;5047244;28;20173;-86
2022/07/25 07:03:15;;;;;;;8.40;5.25;;;;;;;21.85;62.01;100765.34;5005239;28;20051;-86
2022/07/25 07:05:40;;;;;;;9.60;4.35;;;;;;;21.86;61.47;100755.44;5056167;28;20027;-86
2022/07/25 07:08:06;;;;;;;10.20;4.28;;;;;;;21.82;61.67;100756.63;5030463;28;20488;-86
2022/07/25 07:10:31;;;;;;;7.90;4.35;;;;;;;21.86;61.52;100767.06;5033983;28;20136;-86
2022/07/25 07:13:11;;;;;;;7.72;4.13;;;;;;;21.93;61.42;100764.78;5056528;28;20028;-86
2022/07/25 07:15:44;;;;;;;6.07;4.00;;;;;;;22.02;61.22;100771.38;5052287;28;20042;-86
2022/07/25 07:18:09;;;;;;;7.70;3.97;;;;;;;22.15;61.93;100769.53;5086170;28;20041;-86
2022/07/25 07:20:35;;;;;;;7.28;3.67;;;;;;;22.18;60.22;100761.22;5008632;28;20047;-82
2022/07/25 07:23:01;;;;;;;6.40;3.40;;;;;;;22.30;60.09;100764.88;5039473;28;20032;-82
2022/07/25 07:25:26;;;;;;;7.13;2.92;;;;;;;22.41;60.63;100762.28;5028233;28;20043;-82
2022/07/25 07:27:52;;;;;;;6.57;3.42;;;;;;;22.48;59.59;100760.00;5038327;28;20126;-82
2022/07/25 07:30:18;;;;;;;10.45;3.20;;;;;;;22.50;60.19;100758.03;5047834;28;20068;-82
2022/07/25 07:32:44;;;;;;;6.03;2.63;;;;;;;22.56;60.17;100765.72;5036413;28;20104;-82
2022/07/25 07:35:11;;;;;;;4.57;2.25;;;;;;;22.53;59.71;100761.41;5037088;28;20156;-82
2022/07/25 07:37:36;;;;;;;5.53;2.47;;;;;;;22.58;59.93;100749.41;5043059;28;20067;-82
2022/07/25 07:40:03;;;;;;;5.60;2.50;;;;;;;22.67;60.32;100773.84;5049781;28;20029;-82
2022/07/25 07:42:40;;;;;;;6.13;2.40;;;;;;;22.67;59.87;100764.91;5063821;28;20099;-82
2022/07/25 07:45:20;;;;;;;7.00;2.47;;;;;;;22.67;60.04;100760.34;5055152;28;20082;-82
2022/07/25 07:47:47;;;;;;;9.60;2.70;;;;;;;22.67;59.99;100768.47;5031683;28;20365;-83
2022/07/25 07:50:17;;;;;;;7.50;2.15;;;;;;;22.67;60.30;100775.69;5049452;28;20290;-82
2022/07/25 07:52:43;;;;;;;9.15;2.15;;;;;;;22.71;60.58;100769.13;5041785;28;20034;-83
2022/07/25 07:57:54;;;;;;;6.78;2.03;;;;;;;22.84;60.97;100775.31;5027341;28;20044;-82
2022/07/25 08:00:20;;;;;;;7.13;1.90;;;;;;;22.96;60.82;100765.44;5023939;28;20035;-82
2022/07/25 08:02:49;;;;;;;6.38;2.00;;;;;;;23.13;60.56;100786.66;5063675;28;20032;-82
2022/07/25 08:05:29;;;;;;;12.65;2.10;;;;;;;23.20;60.08;100783.53;5035456;28;20116;-82
2022/07/25 08:07:55;;;;;;;6.90;2.20;;;;;;;23.29;60.68;100785.50;5038608;28;20115;-82
2022/07/25 08:10:26;;;;;;;5.43;1.55;;;;;;;23.38;61.36;100790.22;5038591;28;20115;-82
2022/07/25 08:12:52;;;;;;;5.70;1.70;;;;;;;23.47;60.24;100778.69;5038744;28;20503;-83
2022/07/25 08:15:21;;;;;;;8.70;2.20;;;;;;;23.49;61.19;100782.16;5055244;28;20531;-83
2022/07/25 08:17:49;;;;;;;9.55;2.10;;;;;;;23.66;61.00;100796.19;5087016;28;20373;-83
2022/07/25 08:20:15;;;;;;;9.75;1.90;;;;;;;23.57;60.96;100773.44;5054658;28;20268;-81
2022/07/25 08:22:43;;;;;;;4.20;1.45;;;;;;;23.62;60.98;100787.47;5038007;28;20028;-82
2022/07/25 08:25:14;;;;;;;6.35;2.00;;;;;;;23.60;61.40;100781.31;5054941;28;20040;-82
2022/07/25 08:27:39;;;;;;;4.75;1.40;;;;;;;23.54;60.14;100777.25;5040812;28;20039;-81
2022/07/25 08:30:07;;;;;;;6.38;1.90;;;;;;;23.64;60.69;100784.63;5018737;28;20021;-81
2022/07/25 08:32:32;;;;;;;7.35;2.00;;;;;;;23.60;60.56;100779.47;5041455;28;20037;-82
2022/07/25 08:35:00;;;;;;;6.22;1.60;;;;;;;23.86;61.01;100791.97;5035454;28;20031;-82
2022/07/25 08:37:27;;;;;;;5.65;1.80;;;;;;;23.96;60.27;100783.03;5034767;28;20036;-81
2022/07/25 08:39:52;;;;;;;5.10;1.60;;;;;;;23.91;59.58;100781.63;5030856;28;20051;-82
2022/07/25 08:42:19;;;;;;;9.68;1.63;;;;;;;23.90;59.84;100783.50;5033813;28;20132;-82
2022/07/25 08:44:55;;;;;;;5.97;1.50;;;;;;;23.94;59.07;100779.56;5033720;28;20040;-81
2022/07/25 08:47:22;;;;;;;5.72;1.60;;;;;;;24.13;59.10;100778.94;5052549;28;20035;-81
2022/07/25 08:49:48;;;;;;;7.03;1.67;;;;;;;24.30;58.00;100792.97;5037792;28;20055;-85
2022/07/25 08:52:14;;;;;;;6.43;1.67;;;;;;;24.13;57.91;100787.06;5004241;28;20510;-80
2022/07/25 08:54:40;;;;;;;5.22;1.60;;;;;;;24.13;58.35;100792.47;5070092;28;20064;-81
2022/07/25 08:57:05;;;;;;;4.95;1.30;;;;;;;24.09;58.07;100795.56;5030655;28;20127;-81
2022/07/25 08:59:31;;;;;;;4.07;1.23;;;;;;;24.14;59.10;100798.78;5050928;28;20024;-80
2022/07/25 09:02:01;;;;;;;10.27;1.90;;;;;;;24.43;58.85;100791.00;5018652;28;20039;-80
2022/07/25 09:04:28;;;;;;;10.77;1.67;;;;;;;24.67;58.38;100801.72;5051211;28;20063;-82
2022/07/25 09:06:54;;;;;;;6.97;1.85;;;;;;;24.59;56.75;100798.78;5035903;28;20112;-80
2022/07/25 09:09:32;;;;;;;3.67;1.50;;;;;;;24.85;57.09;100793.91;5037135;28;20040;-80
2022/07/25 09:11:57;;;;;;;3.83;1.60;;;;;;;24.93;53.81;100791.44;5035501;28;20057;-82
2022/07/25 09:14:23;;;;;;;6.00;1.50;;;;;;;24.73;52.88;100790.41;5036358;28;20417;-82
2022/07/25 09:16:49;;;;;;;6.20;1.42;;;;;;;24.66;54.76;100798.16;5030451;28;20435;-81
2022/07/25 09:19:20;;;;;;;7.32;1.70;;;;;;;24.68;54.75;100807.00;4985069;28;20045;-81
2022/07/25 09:21:58;;;;;;;;;;;;;;;24.75;54.57;100809.22;5017464;28;20017;-80
2022/07/25 09:24:24;;;;;;;6.68;1.85;;;;;;;24.57;54.69;100808.88;5017681;28;20422;-83
2022/07/25 09:26:53;;;;;;;9.38;1.65;;;;;;;24.71;54.71;100815.88;5017166;28;20104;-81
2022/07/25 09:29:30;;;;;;;8.32;2.08;;;;;;;24.79;54.64;100814.25;5006025;28;20036;-82
2022/07/25 09:31:57;;;;;;;6.45;1.80;;;;;;;24.76;54.12;100816.38;5017167;28;20132;-82
2022/07/25 09:34:36;;;;;;;9.35;2.00;;;;;;;24.57;55.01;100815.13;5016403;28;20048;-81
2022/07/25 09:37:07;;;;;;;8.82;2.42;;;;;;;24.76;54.75;100833.47;5015511;28;20361;-82
2022/07/25 09:39:43;;;;;;;7.53;2.28;;;;;;;24.87;54.70;100833.44;5034205;28;20085;-82
2022/07/25 09:42:24;;;;;;;5.25;1.77;;;;;;;25.07;53.71;100825.50;5052622;28;20037;-82
2022/07/25 09:45:16;;;;;;;5.05;1.98;;;;;;;25.24;53.71;100840.41;5013985;28;20037;-81
2022/07/25 09:47:56;;;;;;;10.35;2.05;;;;;;;25.38;52.68;100826.53;5015507;28;20085;-82
2022/07/25 09:50:23;;;;;;;5.03;1.83;;;;;;;25.42;52.67;100825.31;5006664;28;20228;-81
2022/07/25 09:52:51;;;;;;;6.85;2.00;;;;;;;25.56;52.43;100815.97;5002199;28;20029;-81
2022/07/25 09:55:18;;;;;;;5.15;1.95;;;;;;;25.58;51.73;100826.72;5018810;28;20488;-82
2022/07/25 09:57:47;;;;;;;5.00;1.83;;;;;;;25.68;51.75;100831.19;5035730;28;20053;-82
2022/07/25 10:00:15;;;;;;;9.20;1.92;;;;;;;25.66;51.28;100835.88;5008678;28;20056;-84
2022/07/25 10:02:40;;;;;;;7.72;2.15;;;;;;;25.74;52.02;100837.94;4999439;28;20714;-81
2022/07/25 10:05:29;;;;;;;7.72;2.05;;;;;;;25.75;51.57;100834.25;5041997;28;20029;-81
2022/07/25 10:07:55;;;;;;;8.55;2.20;;;;;;;25.73;51.51;100825.38;5054309;28;20033;-82
2022/07/25 10:10:30;;;;;;;6.97;2.08;;;;;;;25.87;51.40;100837.81;5020361;28;20039;-82
2022/07/25 10:13:16;;;;;;;6.25;2.10;;;;;;;25.80;51.07;100840.16;5032292;28;20440;-84
2022/07/25 10:15:48;;;;;;;9.23;2.45;;;;;;;25.82;50.60;100834.59;5019178;28;20029;-81
2022/07/25 10:18:19;;;;;;;6.43;2.13;;;;;;;26.18;50.86;100831.41;5045052;28;20071;-83
2022/07/25 10:20:47;;;;;;;6.90;1.92;;;;;;;26.49;48.84;100831.41;5040946;28;20068;-83
2022/07/25 10:23:24;;;;;;;6.57;1.80;;;;;;;26.71;48.20;100832.25;5040265;28;20476;-82
2022/07/25 10:26:08;;;;;;;4.35;1.45;;;;;;;26.70;47.52;100828.66;5039399;28;20420;-83
2022/07/25 10:28:35;;;;;;;4.05;1.88;;;;;;;26.39;47.34;100820.50;5055487;28;20040;-87
2022/07/25 10:31:01;;;;;;;8.23;2.25;;;;;;;26.39;47.26;100830.50;5037173;28;20438;-86
2022/07/25 10:33:27;;;;;;;6.47;1.98;;;;;;;26.61;46.94;100837.66;5060563;28;20040;-83
2022/07/25 10:35:52;;;;;;;7.38;2.00;;;;;;;26.72;47.14;100829.38;5058741;28;20091;-86
2022/07/25 10:38:27;;;;;;;6.03;2.00;;;;;;;26.73;45.60;100835.66;5040286;28;20069;-86
2022/07/25 10:40:52;;;;;;;11.63;1.67;;;;;;;26.64;46.00;100848.22;5047181;28;20139;-88
2022/07/25 10:43:21;;;;;;;5.28;1.92;;;;;;;26.52;46.49;100847.44;5056631;28;20104;-85
2022/07/25 10:45:56;;;;;;;6.47;2.10;;;;;;;26.40;47.39;100840.38;5074545;28;20036;-84
2022/07/25 10:48:32;;;;;;;6.75;2.03;;;;;;;26.50;47.49;100841.25;5057500;28;20561;-84
2022/07/25 10:51:01;;;;;;;8.70;2.33;;;;;;;26.54;47.71;100845.47;5042570;28;20375;-82
2022/07/25 10:53:45;;;;;;;6.75;1.88;;;;;;;26.58;47.44;100848.75;5054420;28;20039;-83
2022/07/25 10:56:22;;;;;;;4.07;1.92;;;;;;;26.70;46.23;100855.81;5051612;28;20032;-84
2022/07/25 10:58:51;;;;;;;7.10;1.88;;;;;;;26.56;46.80;100865.22;5073351;28;20557;-88
2022/07/25 11:01:21;;;;;;;9.15;2.13;;;;;;;26.38;48.10;100875.81;5057163;28;20036;-86
2022/07/25 11:03:49;;;;;;;8.27;2.10;;;;;;;26.09;48.01;100862.06;5025248;28;20089;-85
2022/07/25 11:06:27;;;;;;;6.80;2.17;;;;;;;25.90;47.87;100873.66;5056976;28;20282;-85
2022/07/25 11:08:56;;;;;;;10.57;2.40;;;;;;;25.84;47.26;100870.56;5056125;28;20028;-84
2022/07/25 11:11:39;;;;;;;4.75;2.00;;;;;;;25.85;48.65;100869.59;5034195;28;20025;-85
2022/07/25 11:14:22;;;;;;;9.00;2.40;;;;;;;25.63;48.75;100886.84;5052171;28;20041;-85
2022/07/25 11:16:54;;;;;;;9.80;2.20;;;;;;;25.38;48.86;100882.63;5048281;28;20059;-84
2022/07/25 11:19:23;;;;;;;8.00;2.10;;;;;;;25.19;47.46;100877.84;5036810;28;20111;-85
2022/07/25 11:21:54;;;;;;;7.05;2.33;;;;;;;25.07;47.52;100885.13;5033699;28;20503;-84
2022/07/25 11:24:21;;;;;;;6.07;2.40;;;;;;;24.89;49.27;100885.63;5032411;28;20036;-84
2022/07/25 11:26:51;;;;;;;6.40;2.10;;;;;;;24.91;49.07;100892.78;5034366;28;20020;-84